Time;durP1;ratioP1;P1;durP2;ratioP2;P2;SDS_P1;SDS_P2;PMS_P1;PMS_P2;Temp;Humidity;BMP_temperature;BMP_pressure;BME280_temperature;BME280_humidity;BME280_pressure;Samples;Min_cycle;Max_cycle;Signal;HPM_P1;HPM_P2
2021/11/29 00:02:18;;;;;;;2.05;0.20;;;16.10;47.90;;;;;;5065173;28;20042;-49
2021/11/29 00:04:46;;;;;;;4.28;0.40;;;16.10;47.90;;;;;;5064707;28;20500;-48
2021/11/29 00:07:14;;;;;;;0.55;0.30;;;16.10;47.90;;;;;;5066053;28;20041;-45
2021/11/29 00:09:41;;;;;;;1.17;0.43;;;16.20;48.00;;;;;;5063182;28;20037;-48
2021/11/29 00:12:09;;;;;;;1.23;0.20;;;16.10;47.90;;;;;;5063399;28;20033;-49
2021/11/29 00:14:36;;;;;;;3.13;0.65;;;16.10;47.90;;;;;;5062366;28;20041;-50
2021/11/29 00:17:03;;;;;;;1.95;0.28;;;16.10;47.90;;;;;;5064654;28;20033;-47
2021/11/29 00:19:30;;;;;;;2.45;0.30;;;16.10;47.90;;;;;;5064945;28;20036;-45
2021/11/29 00:21:59;;;;;;;3.70;0.10;;;16.10;48.00;;;;;;5065881;28;20119;-45
2021/11/29 00:24:26;;;;;;;1.48;0.10;;;16.10;48.00;;;;;;5064128;28;20043;-44
2021/11/29 00:26:53;;;;;;;1.10;0.30;;;16.10;48.00;;;;;;5064273;28;20051;-45
2021/11/29 00:29:20;;;;;;;3.13;0.30;;;16.10;48.00;;;;;;5063351;28;20051;-45
2021/11/29 00:31:47;;;;;;;2.17;0.45;;;16.10;48.00;;;;;;5065239;28;20408;-47
2021/11/29 00:34:14;;;;;;;5.90;0.68;;;16.10;48.00;;;;;;5066330;28;20934;-46
2021/11/29 00:36:41;;;;;;;1.20;0.10;;;16.10;48.00;;;;;;5064631;28;20036;-46
2021/11/29 00:39:10;;;;;;;0.55;0.13;;;16.10;48.00;;;;;;5064776;28;20063;-49
2021/11/29 00:41:37;;;;;;;3.88;0.13;;;16.10;48.00;;;;;;5064997;28;20044;-47
2021/11/29 00:44:04;;;;;;;3.70;0.13;;;16.10;48.00;;;;;;5065006;28;20039;-46
2021/11/29 00:46:31;;;;;;;1.55;0.30;;;16.10;48.00;;;;;;5065221;28;20047;-47
2021/11/29 00:48:58;;;;;;;3.97;0.40;;;16.10;47.90;;;;;;5065936;28;20420;-49
2021/11/29 00:51:25;;;;;;;1.83;0.17;;;16.10;47.90;;;;;;5064547;28;20056;-47
2021/11/29 00:53:52;;;;;;;15.13;1.45;;;16.10;48.00;;;;;;5064784;28;20041;-48
2021/11/29 00:56:21;;;;;;;2.13;0.20;;;16.10;48.10;;;;;;5064899;28;20055;-49
2021/11/29 00:58:49;;;;;;;3.70;0.20;;;16.10;48.10;;;;;;5063796;28;20559;-48
2021/11/29 01:01:17;;;;;;;3.85;0.40;;;16.10;48.30;;;;;;5064967;28;20475;-50
2021/11/29 01:03:44;;;;;;;1.13;0.40;;;16.10;48.40;;;;;;5064842;28;20052;-45
2021/11/29 01:06:11;;;;;;;3.70;0.10;;;16.10;48.40;;;;;;5064163;28;20060;-45
2021/11/29 01:08:38;;;;;;;2.38;0.10;;;16.10;48.40;;;;;;5064581;28;20092;-45
2021/11/29 01:11:07;;;;;;;1.42;0.20;;;16.10;48.40;;;;;;5064879;28;20033;-47
2021/11/29 01:13:36;;;;;;;1.33;0.73;;;16.10;48.40;;;;;;5065114;28;20048;-46
2021/11/29 01:16:04;;;;;;;3.35;0.30;;;16.10;48.50;;;;;;5066293;28;20041;-45
2021/11/29 01:18:31;;;;;;;1.52;0.10;;;16.00;48.40;;;;;;5064294;28;20050;-45
2021/11/29 01:20:59;;;;;;;0.90;0.20;;;16.10;48.40;;;;;;5064267;28;20037;-46
2021/11/29 01:23:26;;;;;;;2.60;0.20;;;16.00;48.40;;;;;;5064680;28;20064;-48
2021/11/29 01:25:54;;;;;;;0.57;0.30;;;16.00;48.40;;;;;;5064900;28;20040;-45
2021/11/29 01:28:22;;;;;;;0.93;0.28;;;16.10;48.40;;;;;;5064958;28;20139;-47
2021/11/29 01:30:51;;;;;;;4.65;0.20;;;16.00;48.40;;;;;;5065357;28;20037;-47
2021/11/29 01:33:18;;;;;;;2.97;1.00;;;16.10;48.40;;;;;;5063981;28;20066;-48
2021/11/29 01:35:45;;;;;;;0.82;0.30;;;16.00;48.40;;;;;;5063798;28;20037;-51
2021/11/29 01:38:12;;;;;;;0.65;0.20;;;16.10;48.40;;;;;;5064497;28;20040;-48
2021/11/29 01:40:39;;;;;;;2.08;0.10;;;16.10;48.40;;;;;;5064725;28;20067;-49
2021/11/29 01:43:08;;;;;;;3.08;0.10;;;16.00;48.40;;;;;;5064524;28;20064;-46
2021/11/29 01:45:39;;;;;;;1.08;0.10;;;16.00;48.40;;;;;;5064269;28;20040;-45
2021/11/29 01:48:09;;;;;;;1.55;0.30;;;16.00;48.40;;;;;;5063580;28;20041;-51
2021/11/29 01:50:38;;;;;;;0.73;0.20;;;16.00;48.40;;;;;;5064220;28;20036;-50
2021/11/29 01:53:07;;;;;;;2.40;0.47;;;16.00;48.40;;;;;;5064204;28;20048;-49
2021/11/29 01:55:35;;;;;;;2.20;0.93;;;16.00;48.50;;;;;;5062614;28;20119;-48
2021/11/29 01:58:02;;;;;;;0.55;0.32;;;16.00;48.50;;;;;;5063864;28;20044;-45
2021/11/29 02:00:33;;;;;;;0.82;0.10;;;16.00;48.50;;;;;;5061624;28;20489;-47
2021/11/29 02:03:00;;;;;;;0.82;0.10;;;16.00;48.60;;;;;;5057530;28;20051;-49
2021/11/29 02:05:29;;;;;;;1.17;0.10;;;16.00;48.60;;;;;;5063771;28;20505;-47
2021/11/29 02:07:57;;;;;;;0.35;0.10;;;16.00;48.60;;;;;;5064209;28;20421;-49
2021/11/29 02:10:25;;;;;;;1.30;0.52;;;16.00;48.60;;;;;;5059999;28;20045;-55
2021/11/29 02:12:53;;;;;;;2.42;0.20;;;16.00;48.60;;;;;;5066626;28;20045;-48
2021/11/29 02:15:21;;;;;;;0.77;0.10;;;16.00;48.60;;;;;;5067635;28;20041;-50
2021/11/29 02:17:48;;;;;;;0.70;0.10;;;16.00;48.60;;;;;;5059779;28;20063;-48
2021/11/29 02:20:17;;;;;;;1.73;0.20;;;16.00;48.60;;;;;;5067434;28;20032;-46
2021/11/29 02:22:46;;;;;;;1.55;0.10;;;16.00;48.60;;;;;;5067519;28;20044;-48
2021/11/29 02:25:14;;;;;;;0.47;0.20;;;16.00;48.60;;;;;;5069017;28;20039;-50
2021/11/29 02:27:43;;;;;;;1.02;0.10;;;15.90;48.50;;;;;;5067306;28;20519;-52
2021/11/29 02:30:12;;;;;;;4.75;0.13;;;15.90;48.60;;;;;;5067404;28;20044;-49
2021/11/29 02:32:39;;;;;;;1.70;0.10;;;15.90;48.70;;;;;;5067162;28;20033;-48
2021/11/29 02:35:07;;;;;;;0.95;0.10;;;15.90;48.60;;;;;;5067442;28;20501;-50
2021/11/29 02:37:34;;;;;;;2.85;0.17;;;15.90;48.70;;;;;;5067560;28;20055;-45
2021/11/29 02:40:03;;;;;;;0.77;0.10;;;15.90;48.60;;;;;;5066874;28;20060;-48
2021/11/29 02:42:30;;;;;;;0.82;0.10;;;15.90;48.60;;;;;;5067322;28;20587;-47
2021/11/29 02:44:58;;;;;;;1.00;0.65;;;15.90;48.60;;;;;;5068045;28;20052;-46
2021/11/29 02:47:25;;;;;;;0.28;0.10;;;15.90;48.70;;;;;;5066836;28;20032;-51
2021/11/29 02:49:52;;;;;;;1.60;0.10;;;15.90;48.70;;;;;;5067009;28;20036;-48
2021/11/29 02:52:20;;;;;;;0.30;0.10;;;15.90;48.70;;;;;;5068761;28;20049;-46
2021/11/29 02:54:47;;;;;;;0.22;0.20;;;15.90;48.80;;;;;;5067814;28;20052;-48
2021/11/29 02:57:17;;;;;;;2.95;0.20;;;15.90;48.70;;;;;;5067226;28;20287;-47
2021/11/29 02:59:45;;;;;;;1.58;0.10;;;15.90;49.40;;;;;;5066917;28;20051;-50
2021/11/29 03:02:15;;;;;;;0.73;0.10;;;15.90;48.80;;;;;;5066495;28;20433;-47
2021/11/29 03:04:43;;;;;;;1.50;0.10;;;15.90;48.80;;;;;;5066792;28;20044;-48
2021/11/29 03:07:11;;;;;;;0.75;0.20;;;15.90;48.90;;;;;;5068226;28;20088;-51
2021/11/29 03:09:38;;;;;;;1.33;0.10;;;15.90;49.00;;;;;;5066417;28;20048;-48
2021/11/29 03:12:06;;;;;;;1.63;0.10;;;15.90;49.00;;;;;;5067044;28;20416;-52
2021/11/29 03:14:35;;;;;;;3.22;0.10;;;15.90;49.10;;;;;;5066423;28;20527;-48
2021/11/29 03:17:03;;;;;;;0.73;0.13;;;15.90;49.80;;;;;;5066188;28;20040;-47
2021/11/29 03:19:32;;;;;;;2.85;0.95;;;15.90;49.30;;;;;;5066531;28;20526;-44
2021/11/29 03:21:59;;;;;;;3.53;0.15;;;15.90;49.40;;;;;;5067942;28;20052;-48
2021/11/29 03:24:26;;;;;;;1.70;0.00;;;15.90;49.40;;;;;;5066449;28;20045;-47
2021/11/29 03:26:53;;;;;;;2.63;0.20;;;15.90;49.40;;;;;;5066280;28;20051;-46
2021/11/29 03:29:21;;;;;;;0.13;0.10;;;15.90;49.50;;;;;;5066650;28;20167;-48
2021/11/29 03:31:52;;;;;;;0.10;0.08;;;15.90;49.50;;;;;;5066301;28;20049;-48
2021/11/29 03:34:20;;;;;;;1.25;0.10;;;15.90;49.50;;;;;;5064065;28;20127;-49
2021/11/29 03:36:49;;;;;;;0.90;0.10;;;15.90;49.50;;;;;;5065466;28;20442;-50
2021/11/29 03:39:18;;;;;;;1.60;0.20;;;15.90;49.60;;;;;;5066182;28;20032;-46
2021/11/29 03:41:46;;;;;;;5.75;0.10;;;15.90;49.60;;;;;;5065919;28;20040;-49
2021/11/29 03:44:14;;;;;;;0.30;0.10;;;15.90;49.60;;;;;;5065983;28;20048;-47
2021/11/29 03:46:42;;;;;;;1.27;0.10;;;15.90;49.50;;;;;;5066108;28;20050;-49
2021/11/29 03:49:11;;;;;;;0.20;0.10;;;15.90;49.60;;;;;;5067352;28;20055;-48
2021/11/29 03:51:38;;;;;;;2.13;0.45;;;15.90;49.60;;;;;;5065775;28;20432;-50
2021/11/29 03:54:05;;;;;;;0.75;0.15;;;15.90;49.50;;;;;;5065603;28;20821;-45
2021/11/29 03:56:33;;;;;;;1.15;0.10;;;15.90;49.60;;;;;;5065695;28;20036;-46
2021/11/29 03:59:00;;;;;;;1.27;0.10;;;15.90;49.70;;;;;;5065287;28;20051;-46
2021/11/29 04:01:27;;;;;;;0.50;0.10;;;15.80;49.70;;;;;;5066048;28;20048;-52
2021/11/29 04:03:54;;;;;;;0.30;0.10;;;15.90;49.80;;;;;;5061665;28;20058;-48
2021/11/29 04:06:23;;;;;;;1.00;0.10;;;15.90;49.80;;;;;;5065434;28;20044;-46
2021/11/29 04:08:50;;;;;;;0.77;0.30;;;15.90;49.80;;;;;;5065666;28;20139;-50
2021/11/29 04:11:17;;;;;;;0.65;0.10;;;15.90;49.80;;;;;;5065667;28;20432;-50
2021/11/29 04:13:44;;;;;;;0.95;0.08;;;15.90;49.80;;;;;;5065365;28;20046;-52
2021/11/29 04:16:13;;;;;;;1.85;0.10;;;15.80;49.70;;;;;;5066417;28;20036;-47
2021/11/29 04:18:41;;;;;;;3.33;0.47;;;15.80;49.80;;;;;;5064961;28;20143;-47
2021/11/29 04:21:08;;;;;;;0.38;0.10;;;15.80;49.80;;;;;;5065311;28;20052;-50
2021/11/29 04:23:37;;;;;;;2.10;0.10;;;15.80;49.80;;;;;;5065042;28;20036;-50
2021/11/29 04:26:04;;;;;;;1.67;0.00;;;15.80;49.90;;;;;;5065478;28;20447;-47
2021/11/29 04:28:32;;;;;;;1.52;0.30;;;15.80;49.90;;;;;;5065306;28;20525;-46
2021/11/29 04:30:59;;;;;;;0.75;0.10;;;15.80;49.90;;;;;;5066418;28;20033;-51
2021/11/29 04:33:26;;;;;;;1.02;0.10;;;15.80;49.90;;;;;;5065427;28;20151;-46
2021/11/29 04:35:54;;;;;;;0.70;0.38;;;15.80;49.90;;;;;;5064989;28;20036;-49
2021/11/29 04:38:21;;;;;;;0.63;0.10;;;15.80;49.90;;;;;;5065162;28;20078;-50
2021/11/29 04:40:49;;;;;;;1.13;0.10;;;15.80;49.90;;;;;;5065184;28;20041;-45
2021/11/29 04:43:17;;;;;;;0.73;0.10;;;15.80;49.80;;;;;;5066862;28;20135;-48
2021/11/29 04:45:44;;;;;;;0.10;0.10;;;15.80;49.90;;;;;;5065172;28;20818;-51
2021/11/29 04:48:11;;;;;;;2.00;0.13;;;15.80;49.90;;;;;;5064668;28;20040;-52
2021/11/29 04:50:38;;;;;;;0.28;0.00;;;15.80;49.90;;;;;;5063807;28;20404;-47
2021/11/29 04:53:06;;;;;;;1.50;0.10;;;15.80;49.80;;;;;;5065267;28;20063;-47
2021/11/29 04:55:33;;;;;;;1.10;0.45;;;15.80;49.80;;;;;;5064939;28;20037;-46
2021/11/29 04:58:01;;;;;;;0.45;0.20;;;15.80;49.80;;;;;;5065874;28;20155;-48
2021/11/29 05:00:29;;;;;;;0.70;0.10;;;15.80;49.80;;;;;;5064891;28;20626;-44
2021/11/29 05:02:56;;;;;;;2.30;0.00;;;15.80;49.80;;;;;;5063865;28;20080;-47
2021/11/29 05:05:23;;;;;;;0.45;0.10;;;15.80;49.80;;;;;;5064863;28;20037;-45
2021/11/29 05:07:50;;;;;;;0.85;0.10;;;15.80;49.80;;;;;;5061352;28;20037;-45
2021/11/29 05:10:17;;;;;;;3.30;0.75;;;15.80;49.80;;;;;;5066088;28;20040;-45
2021/11/29 05:12:44;;;;;;;0.20;0.10;;;15.80;49.70;;;;;;5065096;28;20052;-47
2021/11/29 05:15:12;;;;;;;0.85;0.10;;;15.80;49.70;;;;;;5063420;28;20536;-51
2021/11/29 05:17:39;;;;;;;0.30;0.10;;;15.80;49.70;;;;;;5064270;28;20037;-47
2021/11/29 05:20:08;;;;;;;0.55;0.10;;;15.80;49.70;;;;;;5064776;28;20070;-47
2021/11/29 05:22:35;;;;;;;0.20;0.10;;;15.70;49.60;;;;;;5065253;28;20049;-46
2021/11/29 05:25:02;;;;;;;0.80;0.00;;;15.80;49.70;;;;;;5064036;28;20041;-50
2021/11/29 05:27:29;;;;;;;0.10;0.10;;;15.80;49.60;;;;;;5064524;28;20048;-49
2021/11/29 05:29:56;;;;;;;0.50;0.10;;;15.80;49.70;;;;;;5065563;28;20064;-49
2021/11/29 05:32:25;;;;;;;1.70;0.10;;;15.80;49.60;;;;;;5064749;28;20040;-53
2021/11/29 05:34:52;;;;;;;0.22;0.10;;;15.80;49.60;;;;;;5060519;28;20400;-48
2021/11/29 05:37:19;;;;;;;0.15;0.10;;;15.70;49.60;;;;;;5062191;28;20603;-52
2021/11/29 05:39:46;;;;;;;0.50;0.10;;;15.80;49.60;;;;;;5064893;28;20082;-49
2021/11/29 05:42:13;;;;;;;0.10;0.10;;;15.70;49.60;;;;;;5064134;28;20628;-46
2021/11/29 05:44:40;;;;;;;0.15;0.10;;;15.70;49.60;;;;;;5064607;28;20104;-46
2021/11/29 05:47:07;;;;;;;2.60;0.10;;;15.80;49.70;;;;;;5066122;28;20040;-47
2021/11/29 05:49:36;;;;;;;1.35;0.10;;;15.70;49.70;;;;;;5068351;28;20051;-43
2021/11/29 05:52:03;;;;;;;0.80;0.10;;;15.70;49.70;;;;;;5068175;28;20052;-49
2021/11/29 05:54:30;;;;;;;2.58;0.10;;;15.70;49.70;;;;;;5068177;28;20037;-48
2021/11/29 05:56:57;;;;;;;0.10;0.00;;;15.70;49.70;;;;;;5068280;28;20044;-50
2021/11/29 05:59:24;;;;;;;0.13;0.13;;;15.80;49.70;;;;;;5068380;28;20041;-49
2021/11/29 06:01:51;;;;;;;2.22;0.10;;;15.70;49.70;;;;;;5067910;28;20056;-49
2021/11/29 06:04:19;;;;;;;0.30;0.10;;;15.70;49.60;;;;;;5067628;28;20048;-46
2021/11/29 06:06:47;;;;;;;0.40;0.10;;;15.70;49.70;;;;;;5065795;28;20043;-49
2021/11/29 06:09:14;;;;;;;0.85;0.00;;;15.70;49.70;;;;;;5064139;28;20040;-47
2021/11/29 06:11:42;;;;;;;0.73;0.10;;;15.70;49.70;;;;;;5067481;28;20122;-51
2021/11/29 06:14:09;;;;;;;2.75;0.03;;;15.70;49.60;;;;;;5067450;28;20047;-45
2021/11/29 06:16:37;;;;;;;0.10;0.05;;;15.70;49.70;;;;;;5067470;28;20051;-47
2021/11/29 06:19:04;;;;;;;0.10;0.10;;;15.80;49.80;;;;;;5067766;28;20045;-50
2021/11/29 06:21:32;;;;;;;1.08;0.57;;;15.70;49.70;;;;;;5066889;28;20042;-47
2021/11/29 06:24:00;;;;;;;0.28;0.10;;;15.70;49.70;;;;;;5065987;28;20442;-47
2021/11/29 06:26:27;;;;;;;0.40;0.10;;;15.70;49.70;;;;;;5048000;28;20040;-48
2021/11/29 06:28:54;;;;;;;1.42;0.10;;;15.80;49.80;;;;;;5066887;28;20044;-51
2021/11/29 06:31:22;;;;;;;1.75;0.10;;;15.80;49.80;;;;;;5068421;28;20040;-48
2021/11/29 06:33:49;;;;;;;1.23;0.20;;;15.80;49.80;;;;;;5067912;28;20458;-49
2021/11/29 06:36:16;;;;;;;2.10;0.10;;;15.80;49.80;;;;;;5067128;28;20522;-49
2021/11/29 06:38:44;;;;;;;1.65;0.10;;;15.80;49.80;;;;;;5066579;28;20037;-50
2021/11/29 06:41:12;;;;;;;0.73;0.22;;;15.80;49.80;;;;;;5066780;28;20033;-51
2021/11/29 06:43:39;;;;;;;0.98;0.00;;;15.80;49.80;;;;;;5066875;28;20051;-48
2021/11/29 06:46:06;;;;;;;1.60;0.10;;;15.80;49.80;;;;;;5068373;28;20094;-46
2021/11/29 06:48:33;;;;;;;0.50;0.20;;;15.80;49.70;;;;;;5066856;28;20040;-46
2021/11/29 06:51:01;;;;;;;1.10;0.13;;;15.80;49.70;;;;;;5066519;28;20052;-44
2021/11/29 06:53:28;;;;;;;0.63;0.20;;;15.80;49.70;;;;;;5066474;28;20151;-46
2021/11/29 06:55:56;;;;;;;0.20;0.20;;;15.80;49.70;;;;;;5066569;28;20489;-44
2021/11/29 06:58:25;;;;;;;1.27;0.10;;;15.80;49.60;;;;;;5067218;28;20051;-45
2021/11/29 07:00:53;;;;;;;1.65;0.10;;;15.80;49.60;;;;;;5068059;28;20029;-44
2021/11/29 07:03:21;;;;;;;2.03;0.80;;;15.80;49.60;;;;;;5066495;28;20123;-44
2021/11/29 07:05:50;;;;;;;1.02;0.20;;;15.80;49.60;;;;;;5066209;28;20098;-45
2021/11/29 07:08:18;;;;;;;0.20;0.10;;;15.80;49.60;;;;;;5066382;28;20114;-44
2021/11/29 07:10:47;;;;;;;2.75;0.65;;;15.70;49.50;;;;;;5063753;28;20523;-45
2021/11/29 07:13:16;;;;;;;0.80;0.15;;;15.70;49.50;;;;;;5067329;28;20047;-44
2021/11/29 07:15:46;;;;;;;2.10;0.10;;;15.80;49.70;;;;;;5066132;28;20568;-44
2021/11/29 07:18:14;;;;;;;0.50;0.10;;;15.80;49.70;;;;;;5063765;28;20581;-45
2021/11/29 07:20:42;;;;;;;1.63;0.10;;;15.80;49.70;;;;;;5065985;28;20055;-46
2021/11/29 07:23:10;;;;;;;1.27;0.20;;;15.80;49.70;;;;;;5065816;28;20041;-50
2021/11/29 07:25:37;;;;;;;2.17;0.10;;;15.80;49.70;;;;;;5065989;28;20568;-45
2021/11/29 07:28:05;;;;;;;0.38;0.30;;;15.80;49.60;;;;;;5067739;28;20036;-49
2021/11/29 07:30:32;;;;;;;1.60;0.28;;;15.80;49.60;;;;;;5064090;28;20045;-46
2021/11/29 07:33:01;;;;;;;0.30;0.10;;;15.80;49.50;;;;;;5065976;28;20110;-48
2021/11/29 07:35:30;;;;;;;0.43;0.10;;;15.80;49.50;;;;;;5065812;28;20036;-47
2021/11/29 07:37:58;;;;;;;0.63;0.10;;;15.80;49.50;;;;;;5065683;28;20461;-47
2021/11/29 07:40:28;;;;;;;0.75;0.10;;;15.80;49.40;;;;;;5063969;28;20036;-48
2021/11/29 07:42:57;;;;;;;0.55;0.10;;;15.80;49.40;;;;;;5065820;28;20155;-48
2021/11/29 07:45:24;;;;;;;4.72;0.43;;;15.80;49.40;;;;;;5066103;28;20050;-50
2021/11/29 07:47:52;;;;;;;1.42;0.10;;;15.80;49.40;;;;;;5064428;28;20127;-46
2021/11/29 07:50:21;;;;;;;0.30;0.20;;;15.90;49.50;;;;;;5065661;28;20041;-50
2021/11/29 07:52:50;;;;;;;0.55;0.10;;;15.80;49.40;;;;;;5061644;28;20047;-49
2021/11/29 07:55:22;;;;;;;1.15;0.10;;;15.90;49.40;;;;;;5059826;28;20045;-49
2021/11/29 07:57:49;;;;;;;0.73;0.10;;;15.90;49.50;;;;;;5062884;28;20611;-49
2021/11/29 08:00:19;;;;;;;0.80;0.10;;;15.90;49.60;;;;;;5062542;28;20043;-47
2021/11/29 08:02:47;;;;;;;0.45;0.20;;;15.90;49.60;;;;;;5065125;28;20048;-46
2021/11/29 08:05:14;;;;;;;0.20;0.10;;;15.90;49.70;;;;;;5059614;28;20086;-44
2021/11/29 08:07:43;;;;;;;1.85;0.10;;;15.90;49.70;;;;;;5064993;28;20092;-46
2021/11/29 08:10:10;;;;;;;6.18;0.10;;;15.90;49.70;;;;;;5064909;28;20039;-41
2021/11/29 08:12:37;;;;;;;2.13;0.10;;;15.90;49.90;;;;;;5063284;28;20369;-44
2021/11/29 08:15:05;;;;;;;2.65;0.20;;;16.00;50.30;;;;;;5062766;28;20114;-42
2021/11/29 08:17:33;;;;;;;0.47;0.40;;;16.10;50.50;;;;;;5064881;28;20123;-43
2021/11/29 08:20:00;;;;;;;1.85;0.10;;;16.20;50.50;;;;;;5064989;28;20049;-43
2021/11/29 08:22:27;;;;;;;0.47;0.10;;;16.30;50.40;;;;;;5064861;28;20042;-43
2021/11/29 08:24:55;;;;;;;0.55;0.13;;;16.50;50.40;;;;;;5065100;28;20041;-47
2021/11/29 08:27:22;;;;;;;2.10;0.13;;;16.60;50.20;;;;;;5064640;28;20140;-50
2021/11/29 08:29:50;;;;;;;0.95;0.10;;;16.80;50.10;;;;;;5064850;28;20040;-44
2021/11/29 08:32:17;;;;;;;0.22;0.10;;;16.90;49.90;;;;;;5065186;28;20051;-48
2021/11/29 08:34:45;;;;;;;2.42;0.13;;;17.00;49.70;;;;;;5062962;28;20291;-48
2021/11/29 08:37:13;;;;;;;0.20;0.20;;;17.20;49.60;;;;;;5066481;28;20488;-44
2021/11/29 08:39:40;;;;;;;0.50;0.10;;;17.30;49.40;;;;;;5064784;28;20055;-42
2021/11/29 08:42:09;;;;;;;0.65;0.20;;;17.50;49.40;;;;;;5064401;28;20052;-44
2021/11/29 08:44:37;;;;;;;8.88;0.30;;;17.60;49.20;;;;;;5060598;28;20041;-44
2021/11/29 08:47:05;;;;;;;0.52;0.10;;;17.70;49.00;;;;;;5060843;28;20060;-43
2021/11/29 08:49:33;;;;;;;1.75;1.00;;;17.80;48.90;;;;;;5059658;28;20398;-45
2021/11/29 08:52:00;;;;;;;0.40;0.10;;;17.90;48.70;;;;;;5065364;28;20127;-44
2021/11/29 08:54:28;;;;;;;0.20;0.10;;;18.00;48.50;;;;;;5064329;28;20099;-45
2021/11/29 08:56:55;;;;;;;1.48;0.15;;;18.10;48.40;;;;;;5063878;28;20508;-44
2021/11/29 08:59:24;;;;;;;2.80;0.20;;;18.20;48.20;;;;;;5059646;28;20041;-46
2021/11/29 09:01:52;;;;;;;3.40;0.10;;;18.30;48.10;;;;;;5063069;28;20575;-46
2021/11/29 09:04:21;;;;;;;0.65;0.10;;;18.40;48.00;;;;;;5060827;28;20061;-44
2021/11/29 09:06:48;;;;;;;3.83;0.30;;;18.50;47.80;;;;;;5063513;28;20040;-46
2021/11/29 09:09:15;;;;;;;1.55;0.20;;;18.60;47.60;;;;;;5063915;28;20505;-48
2021/11/29 09:11:43;;;;;;;0.30;0.10;;;18.70;48.10;;;;;;5064351;28;20115;-44
2021/11/29 09:14:10;;;;;;;5.15;0.25;;;18.80;47.40;;;;;;5057659;28;20067;-44
2021/11/29 09:16:39;;;;;;;1.70;0.10;;;18.90;47.30;;;;;;5058454;28;20056;-42
2021/11/29 09:19:06;;;;;;;1.75;0.75;;;18.90;47.10;;;;;;5064270;28;20120;-45
2021/11/29 09:21:34;;;;;;;0.80;0.80;;;19.00;46.90;;;;;;5065077;28;20028;-42
2021/11/29 09:24:03;;;;;;;1.77;0.20;;;19.10;46.90;;;;;;5064483;28;20897;-42
2021/11/29 09:26:31;;;;;;;0.63;0.20;;;19.20;46.70;;;;;;5059697;28;20040;-46
2021/11/29 09:28:58;;;;;;;2.95;0.28;;;19.30;46.60;;;;;;5060949;28;20122;-41
2021/11/29 09:31:26;;;;;;;1.58;0.20;;;19.40;47.10;;;;;;5067183;28;20048;-44
2021/11/29 09:33:55;;;;;;;1.10;0.47;;;19.40;46.30;;;;;;5068720;28;21346;-43
2021/11/29 09:36:22;;;;;;;5.00;0.30;;;19.50;46.30;;;;;;5067676;28;20032;-45
2021/11/29 09:38:50;;;;;;;2.08;0.40;;;19.60;46.20;;;;;;5066666;28;20064;-43
2021/11/29 09:41:19;;;;;;;2.00;0.20;;;19.60;46.00;;;;;;5067744;28;20128;-45
2021/11/29 09:43:47;;;;;;;4.78;0.40;;;19.70;45.90;;;;;;5063927;28;20118;-43
2021/11/29 09:46:17;;;;;;;4.45;0.17;;;19.80;45.80;;;;;;5069056;28;20088;-46
2021/11/29 09:48:45;;;;;;;1.58;0.10;;;19.80;45.70;;;;;;5067218;28;20599;-47
2021/11/29 09:51:14;;;;;;;0.20;0.10;;;20.00;45.70;;;;;;5067000;28;20055;-43
2021/11/29 09:53:41;;;;;;;0.73;0.20;;;20.00;45.50;;;;;;5066379;28;20044;-44
2021/11/29 09:56:08;;;;;;;2.50;0.17;;;20.10;45.40;;;;;;5065577;28;20037;-43
2021/11/29 09:58:35;;;;;;;1.05;0.20;;;20.10;45.20;;;;;;5066235;28;20135;-47
2021/11/29 10:01:05;;;;;;;1.75;0.13;;;20.20;45.20;;;;;;5068147;28;20040;-42
2021/11/29 10:03:32;;;;;;;0.30;0.20;;;20.30;45.10;;;;;;5063876;28;20051;-43
2021/11/29 10:06:00;;;;;;;0.85;0.10;;;20.30;45.00;;;;;;5065119;28;20635;-40
2021/11/29 10:08:34;;;;;;;0.20;0.10;;;20.40;44.90;;;;;;5067202;28;20037;-43
2021/11/29 10:11:06;;;;;;;1.48;0.73;;;20.50;44.80;;;;;;5067500;28;20037;-45
2021/11/29 10:13:47;;;;;;;0.57;0.10;;;20.50;44.50;;;;;;5065835;28;20079;-46
2021/11/29 10:16:29;;;;;;;1.95;0.10;;;20.60;44.40;;;;;;5068603;28;20123;-49
2021/11/29 10:18:56;;;;;;;2.22;0.13;;;20.60;44.40;;;;;;5067339;28;20051;-43
2021/11/29 10:21:24;;;;;;;5.72;1.05;;;20.70;44.30;;;;;;5066913;28;20040;-43
2021/11/29 10:23:54;;;;;;;1.08;0.10;;;20.70;44.30;;;;;;5065054;28;20063;-42
2021/11/29 10:26:25;;;;;;;0.57;0.13;;;20.80;44.40;;;;;;5060882;28;20532;-45
2021/11/29 10:28:56;;;;;;;4.03;0.10;;;20.80;44.20;;;;;;5062125;28;20029;-41
2021/11/29 10:31:26;;;;;;;4.95;0.13;;;20.80;44.40;;;;;;5067116;28;20125;-46
2021/11/29 10:33:57;;;;;;;1.67;0.25;;;20.80;44.50;;;;;;5067351;28;20047;-45
2021/11/29 10:36:26;;;;;;;6.13;0.10;;;20.90;44.40;;;;;;5064182;28;20048;-47
2021/11/29 10:38:56;;;;;;;4.53;0.13;;;20.90;44.60;;;;;;5060827;28;20178;-47
2021/11/29 10:41:26;;;;;;;3.42;0.20;;;21.00;44.70;;;;;;5060859;28;20075;-44
2021/11/29 10:43:54;;;;;;;1.05;0.10;;;21.10;44.40;;;;;;5059996;28;20056;-44
2021/11/29 10:46:25;;;;;;;2.60;0.10;;;21.10;44.40;;;;;;5066580;28;20082;-43
2021/11/29 10:48:53;;;;;;;3.20;0.10;;;21.10;44.50;;;;;;5067737;28;20135;-43
2021/11/29 10:51:22;;;;;;;3.20;0.10;;;21.10;44.40;;;;;;5066617;28;20059;-44
2021/11/29 10:53:57;;;;;;;3.95;0.47;;;21.20;44.30;;;;;;5065548;28;20049;-43
2021/11/29 10:56:26;;;;;;;2.30;0.10;;;21.20;44.00;;;;;;5066627;28;20128;-41
2021/11/29 10:58:56;;;;;;;3.35;0.10;;;21.20;43.90;;;;;;5066289;28;20047;-43
2021/11/29 11:01:39;;;;;;;0.50;0.10;;;21.30;43.80;;;;;;5067868;28;20343;-41
2021/11/29 11:04:08;;;;;;;3.00;0.10;;;21.20;43.60;;;;;;5067245;28;20053;-42
2021/11/29 11:06:38;;;;;;;1.30;0.20;;;21.20;43.60;;;;;;5066981;28;20041;-49
2021/11/29 11:09:24;;;;;;;0.93;0.20;;;21.20;43.40;;;;;;5066767;28;20044;-46
2021/11/29 11:11:53;;;;;;;1.45;0.10;;;21.20;43.10;;;;;;5057635;28;20100;-49
2021/11/29 11:14:23;;;;;;;0.10;0.10;;;21.10;43.40;;;;;;5066396;28;20501;-44
2021/11/29 11:16:57;;;;;;;0.98;0.10;;;21.00;43.50;;;;;;5061487;28;20040;-47
2021/11/29 11:19:34;;;;;;;2.58;0.63;;;21.00;43.50;;;;;;5061420;28;20171;-46
2021/11/29 11:22:11;;;;;;;0.52;0.10;;;21.00;43.50;;;;;;5062527;28;20048;-44
2021/11/29 11:24:41;;;;;;;1.23;0.13;;;20.90;43.50;;;;;;5053661;28;20501;-44
2021/11/29 11:27:09;;;;;;;3.05;0.10;;;20.90;43.40;;;;;;5065606;28;20041;-42
2021/11/29 11:29:45;;;;;;;12.32;0.20;;;20.80;43.30;;;;;;5065875;28;20044;-42
2021/11/29 11:32:18;;;;;;;1.33;0.25;;;20.80;43.20;;;;;;5059802;28;20519;-44
2021/11/29 11:34:48;;;;;;;3.60;0.77;;;20.70;43.30;;;;;;5065836;28;20118;-47
2021/11/29 11:37:16;;;;;;;3.45;0.40;;;20.60;43.40;;;;;;5067844;28;20064;-43
2021/11/29 11:39:46;;;;;;;3.30;0.30;;;20.60;43.30;;;;;;5066199;28;20059;-43
2021/11/29 11:42:13;;;;;;;3.80;0.30;;;20.50;43.30;;;;;;5065755;28;20496;-44
2021/11/29 11:44:41;;;;;;;1.08;0.20;;;20.50;43.40;;;;;;5059061;28;20041;-45
2021/11/29 11:47:10;;;;;;;0.40;0.40;;;20.50;43.20;;;;;;5065979;28;20051;-43
2021/11/29 11:49:40;;;;;;;3.70;0.38;;;20.50;43.10;;;;;;5065561;28;20103;-43
2021/11/29 11:52:09;;;;;;;10.30;0.40;;;20.60;43.10;;;;;;5065371;28;20058;-49
2021/11/29 11:54:40;;;;;;;1.90;0.10;;;20.60;42.90;;;;;;5065520;28;20098;-46
2021/11/29 11:57:09;;;;;;;1.70;0.10;;;20.70;42.80;;;;;;5065368;28;20040;-43
2021/11/29 11:59:49;;;;;;;0.60;0.10;;;20.80;42.60;;;;;;5065442;28;20103;-47
2021/11/29 12:02:20;;;;;;;1.35;0.75;;;20.80;42.30;;;;;;5065888;28;20039;-49
2021/11/29 12:05:12;;;;;;;2.33;0.30;;;20.80;42.20;;;;;;5060446;28;20055;-51
2021/11/29 12:07:39;;;;;;;5.00;0.10;;;20.90;42.00;;;;;;5065850;28;20121;-42
2021/11/29 12:10:35;;;;;;;8.15;0.10;;;20.90;41.90;;;;;;5067230;28;20047;-46
2021/11/29 12:13:05;;;;;;;0.20;0.10;;;20.90;41.60;;;;;;5065744;28;20178;-48
2021/11/29 12:15:43;;;;;;;5.13;0.15;;;20.90;41.50;;;;;;5065183;28;20456;-43
2021/11/29 12:18:12;;;;;;;0.82;0.10;;;20.90;41.20;;;;;;5065686;28;20064;-45
2021/11/29 12:20:40;;;;;;;0.85;0.10;;;20.80;41.00;;;;;;5063545;28;20582;-45
2021/11/29 12:23:41;;;;;;;0.30;0.10;;;20.80;41.00;;;;;;5065551;28;20086;-45
2021/11/29 12:26:09;;;;;;;1.20;0.22;;;20.70;40.90;;;;;;5063749;28;20051;-46
2021/11/29 12:28:39;;;;;;;1.45;0.40;;;20.60;41.00;;;;;;5065512;28;20048;-46
2021/11/29 12:31:35;;;;;;;3.30;0.20;;;20.60;41.10;;;;;;5065376;28;20059;-47
2021/11/29 12:34:05;;;;;;;0.32;0.10;;;20.60;41.10;;;;;;5064535;28;20045;-43
2021/11/29 12:37:11;;;;;;;0.93;0.10;;;20.50;41.50;;;;;;5063279;28;20052;-43
2021/11/29 12:39:55;;;;;;;0.98;0.10;;;20.50;40.80;;;;;;5063969;28;20052;-46
2021/11/29 12:42:54;;;;;;;2.38;0.17;;;20.40;40.90;;;;;;5064643;28;20413;-46
2021/11/29 12:45:27;;;;;;;2.65;0.10;;;20.50;41.00;;;;;;5061387;28;20064;-47
2021/11/29 12:47:58;;;;;;;1.85;0.35;;;20.50;40.90;;;;;;5060434;28;20044;-45
2021/11/29 12:50:36;;;;;;;2.78;0.10;;;20.50;40.90;;;;;;5064370;28;20045;-46
2021/11/29 12:53:16;;;;;;;0.15;0.13;;;20.50;40.70;;;;;;5065050;28;20452;-46
2021/11/29 12:55:44;;;;;;;1.08;0.10;;;20.60;40.70;;;;;;5064384;28;20039;-48